Time;durP1;ratioP1;P1;durP2;ratioP2;P2;SDS_P1;SDS_P2;PMS_P1;PMS_P2;Temp;Humidity;BMP_temperature;BMP_pressure;BME280_temperature;BME280_humidity;BME280_pressure;Samples;Min_cycle;Max_cycle;Signal;HPM_P1;HPM_P2
2023/04/23 00:00:20;;;;;;;9.60;8.63;;;16.90;99.90;;;;;;5050788;28;20438;-56
2023/04/23 00:02:49;;;;;;;10.80;8.90;;;16.90;99.90;;;;;;5046316;28;20454;-57
2023/04/23 00:05:15;;;;;;;9.13;8.20;;;16.90;99.90;;;;;;5048436;28;20950;-56
2023/04/23 00:07:41;;;;;;;9.77;8.77;;;16.90;99.90;;;;;;5047001;28;20454;-56
2023/04/23 00:10:08;;;;;;;10.13;8.77;;;16.90;99.90;;;;;;5048655;28;20451;-56
2023/04/23 00:12:34;;;;;;;9.17;8.17;;;16.90;99.90;;;;;;5049306;28;20482;-55
2023/04/23 00:15:00;;;;;;;10.23;8.70;;;16.80;99.90;;;;;;5047367;28;20493;-56
2023/04/23 00:17:26;;;;;;;9.37;8.47;;;16.90;99.90;;;;;;5047907;28;20438;-56
2023/04/23 00:19:52;;;;;;;16.30;9.00;;;16.90;99.90;;;;;;5046387;28;20885;-57
2023/04/23 00:22:19;;;;;;;10.93;8.53;;;16.90;99.90;;;;;;5043432;28;20190;-57
2023/04/23 00:24:45;;;;;;;10.00;7.97;;;16.70;99.90;;;;;;5045432;28;20214;-57
2023/04/23 00:27:11;;;;;;;12.90;8.37;;;16.70;99.90;;;;;;5045252;28;20898;-57
2023/04/23 00:29:37;;;;;;;9.97;8.97;;;16.70;99.90;;;;;;5049351;28;20447;-56
2023/04/23 00:32:02;;;;;;;9.40;8.40;;;16.80;99.90;;;;;;5043372;28;20445;-57
2023/04/23 00:34:28;;;;;;;10.10;7.93;;;16.70;99.90;;;;;;5050763;28;20216;-55
2023/04/23 00:36:54;;;;;;;9.00;8.10;;;16.70;99.90;;;;;;5049822;28;20258;-56
2023/04/23 00:39:20;;;;;;;8.47;7.67;;;16.60;99.90;;;;;;5051521;28;20258;-56
2023/04/23 00:41:47;;;;;;;9.30;8.37;;;16.50;99.90;;;;;;5039840;28;20597;-57
2023/04/23 00:44:12;;;;;;;10.70;9.10;;;16.50;99.90;;;;;;5046240;28;20443;-57
2023/04/23 00:46:38;;;;;;;9.90;8.90;;;16.50;99.90;;;;;;5045613;28;20516;-57
2023/04/23 00:49:04;;;;;;;9.67;8.70;;;16.40;99.90;;;;;;5050052;28;20189;-57
2023/04/23 00:51:31;;;;;;;8.97;8.20;;;16.30;99.90;;;;;;5047827;28;20281;-57
2023/04/23 00:53:57;;;;;;;8.93;7.23;;;16.40;99.90;;;;;;5050756;28;20829;-58
2023/04/23 00:56:24;;;;;;;8.60;7.53;;;16.30;99.90;;;;;;5060509;28;20492;-58
2023/04/23 00:58:51;;;;;;;9.53;7.93;;;16.30;99.90;;;;;;5048088;28;20451;-56
2023/04/23 01:01:19;;;;;;;9.40;7.47;;;16.20;99.90;;;;;;5048565;28;20452;-57
2023/04/23 01:03:47;;;;;;;9.63;7.07;;;16.30;99.90;;;;;;5044302;28;20450;-56
2023/04/23 01:06:13;;;;;;;8.90;7.20;;;16.30;99.90;;;;;;5049246;28;20458;-57
2023/04/23 01:08:41;;;;;;;8.43;7.30;;;16.60;99.90;;;;;;5044956;28;20500;-56
2023/04/23 01:11:08;;;;;;;7.37;6.67;;;16.40;99.90;;;;;;5046768;28;20450;-57
2023/04/23 01:13:34;;;;;;;9.33;7.50;;;16.40;99.90;;;;;;5047462;28;20530;-57
2023/04/23 01:16:00;;;;;;;7.50;6.80;;;16.40;99.90;;;;;;5044110;28;20493;-56
2023/04/23 01:18:26;;;;;;;10.30;8.53;;;16.30;99.90;;;;;;5046030;28;20443;-57
2023/04/23 01:20:52;;;;;;;8.63;7.80;;;16.20;99.90;;;;;;5044322;28;20448;-57
2023/04/23 01:23:18;;;;;;;8.63;7.20;;;16.20;99.90;;;;;;5042020;28;20542;-55
2023/04/23 01:25:44;;;;;;;8.57;7.77;;;16.20;99.90;;;;;;5045884;28;20534;-56
2023/04/23 01:28:10;;;;;;;8.53;7.17;;;16.20;99.90;;;;;;5047465;28;20526;-57
2023/04/23 01:30:36;;;;;;;8.23;7.20;;;16.10;99.90;;;;;;5045156;28;20446;-57
2023/04/23 01:33:04;;;;;;;10.00;7.20;;;16.10;99.90;;;;;;5042912;28;20193;-56
2023/04/23 01:35:30;;;;;;;7.87;7.13;;;16.10;99.90;;;;;;5043420;28;20474;-57
2023/04/23 01:37:58;;;;;;;9.63;7.37;;;16.00;99.90;;;;;;5046220;28;20901;-57
2023/04/23 01:40:24;;;;;;;8.43;6.97;;;16.00;99.90;;;;;;5043710;28;20474;-55
2023/04/23 01:42:50;;;;;;;7.70;7.00;;;16.00;99.90;;;;;;5046074;28;20478;-57
2023/04/23 01:45:18;;;;;;;8.20;7.03;;;16.00;99.90;;;;;;5043610;28;20216;-56
2023/04/23 01:47:46;;;;;;;8.50;7.10;;;15.90;99.90;;;;;;5046147;28;20447;-56
2023/04/23 01:50:11;;;;;;;12.13;8.17;;;15.90;99.90;;;;;;5048953;28;20446;-55
2023/04/23 01:52:37;;;;;;;9.10;7.27;;;15.80;99.90;;;;;;5048569;28;20454;-56
2023/04/23 01:55:03;;;;;;;9.63;7.10;;;15.90;99.90;;;;;;5039599;28;20576;-56
2023/04/23 01:57:29;;;;;;;8.33;7.43;;;15.80;99.90;;;;;;5049316;28;20199;-56
2023/04/23 02:00:07;;;;;;;7.93;7.13;;;15.70;99.90;;;;;;5048744;28;20435;-57
2023/04/23 02:02:37;;;;;;;8.57;7.23;;;15.60;99.90;;;;;;5048423;28;20195;-56
2023/04/23 02:05:03;;;;;;;11.57;7.83;;;15.60;99.90;;;;;;5047251;28;20793;-58
2023/04/23 02:07:33;;;;;;;8.40;7.60;;;15.60;99.90;;;;;;5048801;28;20514;-56
2023/04/23 02:10:00;;;;;;;8.10;7.30;;;15.60;99.90;;;;;;5043959;28;20435;-56
2023/04/23 02:12:26;;;;;;;7.90;7.10;;;15.50;99.90;;;;;;5041984;28;20450;-57
2023/04/23 02:14:53;;;;;;;11.10;8.43;;;15.50;99.90;;;;;;5046937;28;20431;-57
2023/04/23 02:17:21;;;;;;;7.87;6.90;;;15.60;99.90;;;;;;5045995;28;20272;-56
2023/04/23 02:19:49;;;;;;;11.13;7.77;;;15.50;99.90;;;;;;5047079;28;20912;-55
2023/04/23 02:22:16;;;;;;;7.60;6.90;;;15.60;99.90;;;;;;5042418;28;20444;-57
2023/04/23 02:24:43;;;;;;;8.07;7.17;;;15.60;99.90;;;;;;5043042;28;20497;-55
2023/04/23 02:27:09;;;;;;;9.27;8.37;;;15.60;99.90;;;;;;5051381;28;20451;-57
2023/04/23 02:29:35;;;;;;;8.20;7.40;;;15.60;99.90;;;;;;5045477;28;21059;-57
2023/04/23 02:32:01;;;;;;;8.70;7.83;;;15.70;99.90;;;;;;5040505;28;21021;-56
2023/04/23 02:34:27;;;;;;;9.10;7.30;;;15.70;99.90;;;;;;5044174;28;20546;-57
2023/04/23 02:36:53;;;;;;;13.20;7.80;;;15.70;99.90;;;;;;5048524;28;20553;-56
2023/04/23 02:39:18;;;;;;;8.60;7.70;;;15.80;99.90;;;;;;5044410;28;20635;-57
2023/04/23 02:41:44;;;;;;;9.43;8.43;;;15.80;99.90;;;;;;5040218;28;20188;-56
2023/04/23 02:44:10;;;;;;;11.87;8.27;;;15.70;99.90;;;;;;5046339;28;20183;-57
2023/04/23 02:46:36;;;;;;;8.17;7.33;;;15.70;99.90;;;;;;5047959;28;20194;-56
2023/04/23 02:49:03;;;;;;;9.17;7.67;;;15.70;99.90;;;;;;5046783;28;20219;-57
2023/04/23 02:51:28;;;;;;;8.60;7.70;;;15.80;99.90;;;;;;5042814;28;20450;-55
2023/04/23 02:53:54;;;;;;;8.20;7.50;;;15.80;99.90;;;;;;5044852;28;20616;-56
2023/04/23 02:56:20;;;;;;;8.47;7.60;;;15.80;99.90;;;;;;5043667;28;20231;-56
2023/04/23 02:58:45;;;;;;;9.37;7.80;;;15.70;99.90;;;;;;5039705;28;20197;-57
2023/04/23 03:01:11;;;;;;;8.37;7.20;;;15.70;99.90;;;;;;5035461;28;20213;-57
2023/04/23 03:03:37;;;;;;;8.83;7.33;;;15.60;99.90;;;;;;5041997;28;20682;-56
2023/04/23 03:06:03;;;;;;;9.83;7.50;;;15.60;99.90;;;;;;5043900;28;20211;-55
2023/04/23 03:08:28;;;;;;;9.67;7.83;;;15.50;99.90;;;;;;5043446;28;20562;-56
2023/04/23 03:10:54;;;;;;;9.27;7.57;;;15.50;99.90;;;;;;5042867;28;20475;-56
2023/04/23 03:13:20;;;;;;;8.13;7.30;;;15.50;99.90;;;;;;5043432;28;20180;-57
2023/04/23 03:15:45;;;;;;;7.77;6.93;;;15.50;99.90;;;;;;5042689;28;21050;-57
2023/04/23 03:18:11;;;;;;;9.37;8.27;;;15.50;99.90;;;;;;5044044;28;20292;-55
2023/04/23 03:20:37;;;;;;;8.03;7.20;;;15.50;99.90;;;;;;5039096;28;20192;-56
2023/04/23 03:23:05;;;;;;;9.33;7.50;;;15.50;99.90;;;;;;5046638;28;20183;-57
2023/04/23 03:25:31;;;;;;;8.77;7.83;;;15.50;99.90;;;;;;5044013;28;20189;-56
2023/04/23 03:27:57;;;;;;;8.07;7.00;;;15.50;99.90;;;;;;5039394;28;20795;-57
2023/04/23 03:30:23;;;;;;;8.90;7.10;;;15.50;99.90;;;;;;5044926;28;20474;-57
2023/04/23 03:32:49;;;;;;;8.60;7.17;;;15.50;99.90;;;;;;5042940;28;20856;-57
2023/04/23 03:35:15;;;;;;;7.60;6.90;;;15.60;99.90;;;;;;5043193;28;20190;-56
2023/04/23 03:37:41;;;;;;;7.83;7.13;;;15.60;99.90;;;;;;5040488;28;20454;-57
2023/04/23 03:40:08;;;;;;;8.13;6.80;;;15.70;99.90;;;;;;5044066;28;20454;-57
2023/04/23 03:42:34;;;;;;;9.00;6.90;;;15.70;99.90;;;;;;5041321;28;20794;-56
2023/04/23 03:45:00;;;;;;;7.63;6.93;;;15.80;99.90;;;;;;5042592;28;20450;-57
2023/04/23 03:47:26;;;;;;;8.83;7.50;;;15.80;99.90;;;;;;5044486;28;20192;-56
2023/04/23 03:49:53;;;;;;;10.30;7.70;;;15.80;99.90;;;;;;5047177;28;20454;-57
2023/04/23 03:52:19;;;;;;;8.20;7.40;;;15.80;99.90;;;;;;5050389;28;20438;-56
2023/04/23 03:54:45;;;;;;;7.53;6.83;;;15.80;99.90;;;;;;5050512;28;20443;-56
2023/04/23 03:57:11;;;;;;;10.13;6.93;;;15.70;99.90;;;;;;5045025;28;20228;-57
2023/04/23 03:59:37;;;;;;;7.50;6.80;;;15.70;99.90;;;;;;5050044;28;20343;-56
2023/04/23 04:02:05;;;;;;;8.73;7.47;;;15.70;99.90;;;;;;5047429;28;20955;-58
2023/04/23 04:04:32;;;;;;;7.90;7.10;;;15.80;99.90;;;;;;5049726;28;20227;-56
2023/04/23 04:06:59;;;;;;;9.83;7.77;;;15.80;99.90;;;;;;5048237;28;20538;-57
2023/04/23 04:09:25;;;;;;;11.10;8.20;;;15.80;99.90;;;;;;5051282;28;21367;-57
2023/04/23 04:11:52;;;;;;;8.27;7.43;;;15.90;99.90;;;;;;5047787;28;20442;-57
2023/04/23 04:14:18;;;;;;;9.20;8.30;;;15.90;99.90;;;;;;5045224;28;20447;-57
2023/04/23 04:16:44;;;;;;;7.80;6.60;;;16.00;99.90;;;;;;5046368;28;20458;-58
2023/04/23 04:19:09;;;;;;;8.20;7.07;;;16.10;99.90;;;;;;5044751;28;20195;-57
2023/04/23 04:21:35;;;;;;;8.33;7.50;;;16.20;99.90;;;;;;5048654;28;20271;-57
2023/04/23 04:24:01;;;;;;;7.47;6.77;;;16.20;99.90;;;;;;5048351;28;20227;-56
2023/04/23 04:26:28;;;;;;;9.20;7.10;;;16.10;99.90;;;;;;5047524;28;20191;-55
2023/04/23 04:28:54;;;;;;;8.30;7.00;;;16.20;99.90;;;;;;5043002;28;20454;-56
2023/04/23 04:31:20;;;;;;;9.90;7.60;;;16.30;99.90;;;;;;5049544;28;20542;-56
2023/04/23 04:33:46;;;;;;;8.03;7.33;;;16.30;99.90;;;;;;5047972;28;20200;-56
2023/04/23 04:36:13;;;;;;;9.20;7.70;;;16.30;99.90;;;;;;5042489;28;20471;-58
2023/04/23 04:38:39;;;;;;;8.07;7.23;;;16.30;99.90;;;;;;5050920;28;20434;-57
2023/04/23 04:41:05;;;;;;;8.10;7.30;;;16.50;99.90;;;;;;5048397;28;20418;-55
2023/04/23 04:43:33;;;;;;;11.47;7.57;;;16.60;99.90;;;;;;5046794;28;20498;-59
2023/04/23 04:46:00;;;;;;;10.27;7.70;;;16.70;99.90;;;;;;5048860;28;20450;-57
2023/04/23 04:48:25;;;;;;;8.30;7.03;;;16.70;99.90;;;;;;5050302;28;20493;-57
2023/04/23 04:50:52;;;;;;;10.30;7.00;;;16.70;99.90;;;;;;5040060;28;20479;-57
2023/04/23 04:53:17;;;;;;;9.70;7.13;;;16.80;99.90;;;;;;5048896;28;21521;-57
2023/04/23 04:55:43;;;;;;;7.57;6.80;;;16.80;99.90;;;;;;5046256;28;22896;-56
2023/04/23 04:58:08;;;;;;;7.80;7.00;;;16.90;99.90;;;;;;5040688;28;20596;-58
2023/04/23 05:00:34;;;;;;;10.60;7.23;;;16.80;99.90;;;;;;5046771;28;20657;-56
2023/04/23 05:03:00;;;;;;;8.87;8.03;;;16.80;99.90;;;;;;5041538;28;20271;-57
2023/04/23 05:05:26;;;;;;;7.67;6.80;;;16.90;99.90;;;;;;5047867;28;20192;-58
2023/04/23 05:08:01;;;;;;;9.43;7.13;;;16.90;99.90;;;;;;5043064;28;20238;-58
2023/04/23 05:10:27;;;;;;;6.70;6.10;;;17.00;99.90;;;;;;5041627;28;20454;-58
2023/04/23 05:12:55;;;;;;;8.93;6.53;;;16.90;99.90;;;;;;5045709;28;20458;-57
2023/04/23 05:15:20;;;;;;;8.50;7.13;;;17.00;99.90;;;;;;5044973;28;20898;-58
2023/04/23 05:17:46;;;;;;;8.83;6.30;;;17.10;99.90;;;;;;5047048;28;20955;-59
2023/04/23 05:20:13;;;;;;;6.87;6.17;;;17.20;99.90;;;;;;5045428;28;20541;-55
2023/04/23 05:22:40;;;;;;;8.00;6.80;;;17.30;99.90;;;;;;5046052;28;20346;-57
2023/04/23 05:25:07;;;;;;;8.73;7.10;;;17.40;99.90;;;;;;5046463;28;20959;-57
2023/04/23 05:27:33;;;;;;;9.77;7.30;;;17.40;99.90;;;;;;5050284;28;20439;-57
2023/04/23 05:30:03;;;;;;;8.97;6.93;;;17.50;99.90;;;;;;5042125;28;20550;-57
2023/04/23 05:32:29;;;;;;;6.70;6.20;;;17.50;99.90;;;;;;5041793;28;20484;-56
2023/04/23 05:34:55;;;;;;;8.33;6.77;;;17.60;99.90;;;;;;5047286;28;20439;-57
2023/04/23 05:37:21;;;;;;;8.43;7.17;;;17.60;99.90;;;;;;5047475;28;20204;-57
2023/04/23 05:39:47;;;;;;;7.70;6.90;;;17.80;99.90;;;;;;5040170;28;20275;-56
2023/04/23 05:42:12;;;;;;;7.07;6.47;;;17.70;99.90;;;;;;5041655;28;21008;-57
2023/04/23 05:44:40;;;;;;;7.77;6.97;;;17.60;99.90;;;;;;5038511;28;20235;-56
2023/04/23 05:47:06;;;;;;;7.87;6.60;;;17.50;99.90;;;;;;5041065;28;20268;-57
2023/04/23 05:49:32;;;;;;;7.70;6.50;;;17.50;99.90;;;;;;5047582;28;20551;-58
2023/04/23 05:51:58;;;;;;;7.40;6.33;;;17.30;99.90;;;;;;5047031;28;20184;-56
2023/04/23 05:54:24;;;;;;;7.60;6.90;;;17.30;99.90;;;;;;5039259;28;20188;-57
2023/04/23 05:56:49;;;;;;;7.77;6.97;;;17.20;99.90;;;;;;5042495;28;20475;-58
2023/04/23 05:59:15;;;;;;;7.17;6.47;;;17.20;99.90;;;;;;5044986;28;20530;-58
2023/04/23 06:01:41;;;;;;;9.30;7.10;;;17.20;99.90;;;;;;5042876;28;20192;-58
2023/04/23 06:04:07;;;;;;;8.77;7.10;;;17.20;99.90;;;;;;5049732;28;20184;-58
2023/04/23 06:06:32;;;;;;;7.30;6.60;;;17.30;99.90;;;;;;5040580;28;20188;-58
2023/04/23 06:08:58;;;;;;;8.00;6.33;;;17.40;99.90;;;;;;5044694;28;20804;-57
2023/04/23 06:11:24;;;;;;;8.03;7.13;;;17.50;99.90;;;;;;5033474;28;20191;-58
2023/04/23 06:13:49;;;;;;;8.80;6.30;;;17.60;99.90;;;;;;5034594;28;20241;-58
2023/04/23 06:16:15;;;;;;;9.80;6.60;;;17.70;99.90;;;;;;5038791;28;20299;-58
2023/04/23 06:18:41;;;;;;;10.80;7.87;;;17.80;99.90;;;;;;5048055;28;20207;-60
2023/04/23 06:21:07;;;;;;;7.67;6.40;;;18.00;99.90;;;;;;5046636;28;20212;-58
2023/04/23 06:23:33;;;;;;;7.17;6.30;;;18.20;99.90;;;;;;5040430;28;20958;-60
2023/04/23 06:25:59;;;;;;;6.57;5.97;;;18.50;99.90;;;;;;5034447;28;20455;-57
2023/04/23 06:28:25;;;;;;;7.50;6.70;;;18.60;99.90;;;;;;5032773;28;20451;-59
2023/04/23 06:30:51;;;;;;;7.90;6.17;;;18.90;99.90;;;;;;5030793;28;20451;-59
2023/04/23 06:33:17;;;;;;;7.30;6.30;;;19.00;99.90;;;;;;5033053;28;20192;-59
2023/04/23 06:35:42;;;;;;;8.07;6.47;;;19.10;99.90;;;;;;5033605;28;20829;-59
2023/04/23 06:38:08;;;;;;;6.57;5.97;;;19.30;99.90;;;;;;5032357;28;20524;-58
2023/04/23 06:40:34;;;;;;;8.13;7.30;;;19.40;99.90;;;;;;5032738;28;20738;-57
2023/04/23 06:43:03;;;;;;;7.53;6.30;;;19.60;99.90;;;;;;5033106;28;20419;-58
2023/04/23 06:45:30;;;;;;;9.47;5.90;;;19.70;99.90;;;;;;5034213;28;20188;-58
2023/04/23 06:47:56;;;;;;;6.87;6.17;;;19.70;99.90;;;;;;5044018;28;20447;-59
2023/04/23 06:50:22;;;;;;;6.50;5.80;;;20.00;99.90;;;;;;5045216;28;21035;-57
2023/04/23 06:52:48;;;;;;;6.47;5.87;;;20.00;99.90;;;;;;5042430;28;20658;-58
2023/04/23 06:55:13;;;;;;;6.30;5.70;;;20.00;99.90;;;;;;5046352;28;20216;-58
2023/04/23 06:57:39;;;;;;;6.20;5.60;;;20.00;99.90;;;;;;5042047;28;20188;-59
2023/04/23 07:00:12;;;;;;;5.97;5.43;;;20.10;99.90;;;;;;5040953;28;21330;-59
2023/04/23 07:02:38;;;;;;;4.90;4.40;;;20.30;99.90;;;;;;5040039;28;20435;-59
2023/04/23 07:05:04;;;;;;;5.67;3.60;;;20.20;99.90;;;;;;5040704;28;20498;-59
2023/04/23 07:07:29;;;;;;;7.10;2.83;;;20.00;99.90;;;;;;5044992;28;20718;-59
2023/04/23 07:09:55;;;;;;;3.43;2.93;;;19.70;99.90;;;;;;5043446;28;20522;-59
2023/04/23 07:12:21;;;;;;;3.40;2.80;;;19.40;99.90;;;;;;5042012;28;20451;-58
2023/04/23 07:14:47;;;;;;;2.77;2.50;;;19.40;99.90;;;;;;5044972;28;20194;-58
2023/04/23 07:17:12;;;;;;;2.80;2.50;;;19.40;99.90;;;;;;5043027;28;20204;-60
2023/04/23 07:19:38;;;;;;;4.30;2.70;;;19.30;99.90;;;;;;5046873;28;20193;-58
2023/04/23 07:22:03;;;;;;;3.17;2.80;;;19.20;99.90;;;;;;5045840;28;20180;-58
2023/04/23 07:24:29;;;;;;;3.80;2.47;;;19.10;99.90;;;;;;5040093;28;20196;-58
2023/04/23 07:26:55;;;;;;;4.50;2.90;;;19.00;99.90;;;;;;5044596;28;20419;-58
2023/04/23 07:29:20;;;;;;;7.10;3.83;;;19.00;99.90;;;;;;5050204;28;20279;-59
2023/04/23 07:31:47;;;;;;;3.10;2.60;;;19.00;99.90;;;;;;5045977;28;20211;-59
2023/04/23 07:34:12;;;;;;;4.20;3.00;;;18.90;99.90;;;;;;5039988;28;20852;-58
2023/04/23 07:36:38;;;;;;;4.03;3.10;;;18.80;99.90;;;;;;5040763;28;20471;-60
2023/04/23 07:39:04;;;;;;;3.70;2.87;;;18.80;99.90;;;;;;5044914;28;20239;-58
2023/04/23 07:41:31;;;;;;;2.97;2.77;;;19.00;99.90;;;;;;5044307;28;20825;-60
2023/04/23 07:43:57;;;;;;;3.07;2.60;;;19.00;99.90;;;;;;5044233;28;20450;-59
2023/04/23 07:46:22;;;;;;;3.40;3.10;;;19.10;99.90;;;;;;5049457;28;20518;-58
2023/04/23 07:48:48;;;;;;;3.93;3.57;;;18.70;99.90;;;;;;5044597;28;20531;-59
2023/04/23 07:51:15;;;;;;;4.03;2.87;;;19.00;99.90;;;;;;5051122;28;20242;-58
2023/04/23 07:53:40;;;;;;;4.30;3.00;;;18.90;99.90;;;;;;5042495;28;20670;-58
2023/04/23 07:56:06;;;;;;;3.33;2.80;;;18.90;99.90;;;;;;5040531;28;20482;-59
2023/04/23 07:58:32;;;;;;;4.97;3.20;;;18.80;99.90;;;;;;5044487;28;20523;-58
2023/04/23 08:00:57;;;;;;;11.43;7.90;;;18.80;99.90;;;;;;5047306;28;20263;-59
2023/04/23 08:03:23;;;;;;;4.10;3.07;;;19.00;99.90;;;;;;5045466;28;20187;-59
2023/04/23 08:05:49;;;;;;;6.90;3.40;;;19.10;99.90;;;;;;5042463;28;20568;-58
2023/04/23 08:08:15;;;;;;;3.90;3.10;;;19.20;99.90;;;;;;5057151;28;20222;-60
2023/04/23 08:10:41;;;;;;;4.50;3.30;;;19.40;99.90;;;;;;5049231;28;20486;-60
2023/04/23 08:13:07;;;;;;;2.60;2.20;;;19.60;99.90;;;;;;5038650;28;20201;-61
2023/04/23 08:15:32;;;;;;;2.67;2.03;;;19.60;99.90;;;;;;5049684;28;20544;-60
2023/04/23 08:17:58;;;;;;;3.57;2.10;;;19.50;99.90;;;;;;5039859;28;20471;-58
2023/04/23 08:20:24;;;;;;;1.50;1.40;;;19.60;99.90;;;;;;5043708;28;20190;-60
2023/04/23 08:22:52;;;;;;;2.10;1.70;;;19.50;99.90;;;;;;5040524;28;20192;-59
2023/04/23 08:25:18;;;;;;;1.50;1.40;;;19.40;99.90;;;;;;5044926;28;20875;-60
2023/04/23 08:27:44;;;;;;;2.60;1.90;;;19.50;99.90;;;;;;5034177;28;20452;-59
2023/04/23 08:30:09;;;;;;;1.87;1.77;;;19.40;99.90;;;;;;5031242;28;20439;-59
2023/04/23 08:32:35;;;;;;;2.10;1.90;;;19.60;99.90;;;;;;5042421;28;20188;-62
2023/04/23 08:35:01;;;;;;;1.60;1.50;;;19.60;99.90;;;;;;5038551;28;20184;-59
2023/04/23 08:37:27;;;;;;;1.83;1.73;;;19.80;99.90;;;;;;5044659;28;20520;-61
2023/04/23 08:39:52;;;;;;;2.37;1.87;;;20.10;99.90;;;;;;5041504;28;20234;-60
2023/04/23 08:42:44;;;;;;;1.93;1.77;;;20.50;99.90;;;;;;5036124;28;20755;-60
2023/04/23 08:45:10;;;;;;;2.00;1.70;;;20.50;99.90;;;;;;5044302;28;20192;-61
2023/04/23 08:47:41;;;;;;;2.10;1.90;;;20.20;99.90;;;;;;5044769;28;20466;-60
2023/04/23 08:50:11;;;;;;;2.30;2.10;;;20.20;99.90;;;;;;5039933;28;20539;-58
2023/04/23 08:52:45;;;;;;;3.43;1.70;;;20.30;99.90;;;;;;5046965;28;20443;-60
2023/04/23 08:55:13;;;;;;;2.10;1.83;;;20.30;99.90;;;;;;5040062;28;20991;-59
2023/04/23 08:57:40;;;;;;;1.70;1.60;;;20.00;99.90;;;;;;5041944;28;20536;-61
2023/04/23 09:00:10;;;;;;;2.50;2.00;;;19.90;99.90;;;;;;5042987;28;20443;-60
2023/04/23 09:02:39;;;;;;;2.37;1.90;;;19.80;99.90;;;;;;5046091;28;20455;-60
2023/04/23 09:05:05;;;;;;;2.70;1.47;;;19.60;99.90;;;;;;5042668;28;20454;-59
2023/04/23 09:07:33;;;;;;;1.83;1.63;;;19.40;99.90;;;;;;5035777;28;20447;-59
2023/04/23 09:09:58;;;;;;;1.80;1.50;;;19.40;99.90;;;;;;5044271;28;20447;-59
2023/04/23 09:12:24;;;;;;;1.97;1.77;;;19.40;99.90;;;;;;5044575;28;20570;-59
2023/04/23 09:14:50;;;;;;;2.00;1.40;;;19.30;99.90;;;;;;5055423;28;20192;-59
2023/04/23 09:17:21;;;;;;;2.07;1.53;;;19.30;99.90;;;;;;5049001;28;20270;-62
2023/04/23 09:19:49;;;;;;;3.00;1.43;;;19.30;99.90;;;;;;5049867;28;20720;-59
2023/04/23 09:22:15;;;;;;;5.13;1.43;;;19.40;99.90;;;;;;5046590;28;20451;-60
2023/04/23 09:24:42;;;;;;;1.53;1.10;;;19.70;99.90;;;;;;5045825;28;20454;-60
2023/04/23 09:27:08;;;;;;;2.03;1.00;;;20.00;99.90;;;;;;5047782;28;21062;-59
2023/04/23 09:29:34;;;;;;;1.80;1.40;;;20.20;99.90;;;;;;5047981;28;20529;-59
2023/04/23 09:32:09;;;;;;;1.27;1.03;;;20.40;99.90;;;;;;5050532;28;20184;-60
2023/04/23 09:34:38;;;;;;;2.50;2.20;;;20.60;99.90;;;;;;5044996;28;20454;-60
2023/04/23 09:37:06;;;;;;;1.23;1.13;;;20.90;99.90;;;;;;5047231;28;20889;-60
2023/04/23 09:39:34;;;;;;;1.53;1.30;;;20.90;99.90;;;;;;5049029;28;20439;-59
2023/04/23 09:42:04;;;;;;;1.90;1.37;;;20.40;99.90;;;;;;5046894;28;20438;-60
2023/04/23 09:44:32;;;;;;;1.03;0.93;;;19.90;99.90;;;;;;5046392;28;20457;-60
2023/04/23 09:47:08;;;;;;;1.70;1.60;;;19.70;99.90;;;;;;5048706;28;20966;-60
2023/04/23 09:49:45;;;;;;;0.80;0.80;;;19.70;99.90;;;;;;5049343;28;20434;-60
2023/04/23 09:52:11;;;;;;;1.00;0.90;;;19.70;99.90;;;;;;5045057;28;20789;-59
2023/04/23 09:54:36;;;;;;;4.10;2.10;;;19.70;99.90;;;;;;5047208;28;20485;-60
2023/04/23 09:57:07;;;;;;;3.27;1.30;;;19.60;99.90;;;;;;5047978;28;20236;-59
2023/04/23 09:59:35;;;;;;;1.00;1.00;;;19.40;99.90;;;;;;5048304;28;20177;-59
2023/04/23 10:02:02;;;;;;;1.33;1.17;;;19.50;99.90;;;;;;5042318;28;20451;-60
2023/04/23 10:04:28;;;;;;;1.43;1.00;;;19.70;99.90;;;;;;5047550;28;20926;-58
2023/04/23 10:06:54;;;;;;;1.00;0.87;;;19.90;99.90;;;;;;5046060;28;20613;-60
2023/04/23 10:09:23;;;;;;;1.20;1.10;;;19.90;99.90;;;;;;5049725;28;20318;-60
2023/04/23 10:11:55;;;;;;;1.13;1.00;;;20.00;99.90;;;;;;5049904;28;20821;-59
2023/04/23 10:14:21;;;;;;;1.13;1.03;;;19.80;99.90;;;;;;5045915;28;20447;-59
2023/04/23 10:16:50;;;;;;;3.10;1.00;;;19.80;99.90;;;;;;5045708;28;20473;-60
2023/04/23 10:19:23;;;;;;;1.40;1.30;;;19.90;99.90;;;;;;5046164;28;20470;-59
2023/04/23 10:21:54;;;;;;;5.67;1.17;;;20.10;99.90;;;;;;5045568;28;20582;-60
2023/04/23 10:24:23;;;;;;;2.47;1.10;;;20.60;99.90;;;;;;5049566;28;20518;-60
2023/04/23 10:26:51;;;;;;;1.87;1.20;;;20.80;99.90;;;;;;5045610;28;20447;-60
2023/04/23 10:29:23;;;;;;;3.57;1.03;;;20.70;99.90;;;;;;5049361;28;20431;-61
2023/04/23 10:31:49;;;;;;;1.50;0.93;;;20.50;99.90;;;;;;5045034;28;20447;-60
2023/04/23 10:34:16;;;;;;;1.30;1.00;;;20.30;99.90;;;;;;5049076;28;20450;-60
2023/04/23 10:36:42;;;;;;;1.30;1.20;;;20.20;99.90;;;;;;5062626;28;21002;-60
2023/04/23 10:39:09;;;;;;;3.97;2.67;;;20.30;99.90;;;;;;5054727;28;20433;-60
2023/04/23 10:41:38;;;;;;;1.20;1.03;;;20.40;99.90;;;;;;5069554;28;20493;-60
2023/04/23 10:44:11;;;;;;;1.20;0.97;;;20.50;99.90;;;;;;5068781;28;20441;-58
2023/04/23 10:46:37;;;;;;;1.20;0.90;;;20.20;99.90;;;;;;5047687;28;20469;-60
2023/04/23 10:49:15;;;;;;;0.97;0.90;;;20.10;99.90;;;;;;5043902;28;20442;-60
2023/04/23 10:51:44;;;;;;;1.20;1.10;;;20.30;99.90;;;;;;5062971;28;20219;-59
2023/04/23 10:54:12;;;;;;;1.47;1.10;;;20.30;99.90;;;;;;5048666;28;20437;-61
2023/04/23 10:56:39;;;;;;;2.27;1.37;;;20.40;99.90;;;;;;5050722;28;20476;-59
2023/04/23 10:59:21;;;;;;;1.33;1.10;;;20.70;99.90;;;;;;5046419;28;20451;-60
2023/04/23 11:01:49;;;;;;;2.60;2.33;;;21.10;99.90;;;;;;5056118;28;20445;-60
2023/04/23 11:04:28;;;;;;;1.80;1.57;;;20.90;99.90;;;;;;5052506;28;20990;-59
2023/04/23 11:06:56;;;;;;;1.57;1.30;;;21.00;99.90;;;;;;5051769;28;20438;-60
2023/04/23 11:09:47;;;;;;;1.10;1.00;;;21.20;99.90;;;;;;5053783;28;21028;-59
2023/04/23 11:12:29;;;;;;;1.40;1.20;;;21.30;99.90;;;;;;5063671;28;20461;-60
2023/04/23 11:14:55;;;;;;;1.17;1.07;;;21.30;99.90;;;;;;5051817;28;20951;-60
2023/04/23 11:17:43;;;;;;;1.20;1.00;;;20.90;99.90;;;;;;5047505;28;20463;-60
2023/04/23 11:20:21;;;;;;;3.27;2.97;;;20.40;99.90;;;;;;5053006;28;20532;-60
2023/04/23 11:22:51;;;;;;;1.47;1.30;;;20.20;99.90;;;;;;5051890;28;20820;-59
2023/04/23 11:25:21;;;;;;;1.43;1.30;;;20.10;99.90;;;;;;5064084;28;20460;-59
2023/04/23 11:27:48;;;;;;;1.60;1.50;;;19.90;99.90;;;;;;5056285;28;20680;-59
2023/04/23 11:30:21;;;;;;;1.80;1.17;;;19.70;99.90;;;;;;5052937;28;20443;-61
2023/04/23 11:32:49;;;;;;;1.43;1.30;;;19.80;99.90;;;;;;5050474;28;20965;-59
2023/04/23 11:35:16;;;;;;;2.70;1.20;;;19.90;99.90;;;;;;5051981;28;20530;-58
2023/04/23 11:37:43;;;;;;;1.57;1.40;;;19.80;99.90;;;;;;5050534;28;20607;-60
2023/04/23 11:40:12;;;;;;;1.93;1.40;;;19.60;99.90;;;;;;5052720;28;20462;-59
2023/04/23 11:42:48;;;;;;;1.30;1.20;;;19.70;99.90;;;;;;5052786;28;20459;-60
2023/04/23 11:45:32;;;;;;;1.53;1.33;;;19.80;99.90;;;;;;5052027;28;20522;-60
2023/04/23 11:47:59;;;;;;;1.33;0.87;;;19.80;99.90;;;;;;5052336;28;20437;-60
2023/04/23 11:50:25;;;;;;;1.10;1.00;;;20.00;99.90;;;;;;5052495;28;20445;-61
2023/04/23 11:52:51;;;;;;;2.83;1.33;;;20.20;99.90;;;;;;5046396;28;20439;-61
2023/04/23 11:55:18;;;;;;;1.40;1.30;;;20.40;99.90;;;;;;5054485;28;20219;-60
2023/04/23 11:57:46;;;;;;;1.30;1.20;;;20.40;99.90;;;;;;5052109;28;21973;-59
2023/04/23 12:00:21;;;;;;;1.20;1.10;;;20.50;99.90;;;;;;5046202;28;20454;-59
2023/04/23 12:02:51;;;;;;;2.80;1.10;;;20.60;99.90;;;;;;5045593;28;20967;-60
2023/04/23 12:05:41;;;;;;;3.47;3.17;;;20.50;99.90;;;;;;5050967;28;20485;-60
2023/04/23 12:08:17;;;;;;;1.50;1.30;;;20.40;99.90;;;;;;5051469;28;20445;-59
2023/04/23 12:10:49;;;;;;;1.33;1.13;;;20.30;99.90;;;;;;5046585;28;20967;-59
2023/04/23 12:13:26;;;;;;;1.50;1.40;;;20.00;99.90;;;;;;5047627;28;20840;-61
2023/04/23 12:16:00;;;;;;;1.67;1.57;;;20.00;99.90;;;;;;5050641;28;20557;-60
2023/04/23 12:18:41;;;;;;;1.20;1.10;;;20.00;99.90;;;;;;5050289;28;20455;-59
2023/04/23 12:21:11;;;;;;;1.50;1.40;;;19.90;99.90;;;;;;5050068;28;20449;-59
2023/04/23 12:23:38;;;;;;;1.73;1.37;;;20.00;99.90;;;;;;5045919;28;20509;-60
2023/04/23 12:26:12;;;;;;;2.17;1.40;;;19.90;99.90;;;;;;5050990;28;20413;-60
2023/04/23 12:28:50;;;;;;;1.60;1.50;;;19.80;99.90;;;;;;5051380;28;20430;-59
2023/04/23 12:31:26;;;;;;;1.60;1.50;;;19.70;99.90;;;;;;5049956;28;20959;-60
2023/04/23 12:34:05;;;;;;;1.60;1.50;;;19.70;99.90;;;;;;5048008;28;20989;-59
2023/04/23 12:36:31;;;;;;;1.40;1.30;;;20.00;99.90;;;;;;5048801;28;20497;-59
2023/04/23 12:39:36;;;;;;;2.03;1.30;;;19.90;99.90;;;;;;5049451;28;20444;-59
2023/04/23 12:42:04;;;;;;;3.03;1.73;;;20.00;99.90;;;;;;5050437;28;20526;-60
2023/04/23 12:44:34;;;;;;;2.43;1.50;;;20.20;99.90;;;;;;5048495;28;20529;-60
2023/04/23 12:47:06;;;;;;;2.30;1.80;;;20.10;99.90;;;;;;5050562;28;20979;-60